ADDS METAR Data INFO
IDs: Format: Raw Decoded Include TAF

Data at: 1505 UTC 19 Aug 2017

METAR for:KHLX (Hillsville/Twin Cnty, VA, US)
Text:KHLX 191455Z AUTO 35003KT 10SM BKN024 BKN032 22/15 A3011 RMK AO2 T02230147
Temperature: 22.3°C ( 72°F)
Dewpoint: 14.7°C ( 58°F) [RH = 62%]
Pressure (altimeter):30.11 inches Hg (1019.7 mb)
Winds:from the N (350 degrees) at 3 MPH (3 knots; 1.5 m/s)
Visibility:10 or more sm (16+ km)
Ceiling:2400 feet AGL
Clouds: broken clouds at 2400 feet AGL, broken clouds at 3200 feet AGL
QC Flag:automated observation with no human augmentation